sensor_id;sensor_type;location;lat;lon;timestamp;P1;durP1;ratioP1;P2;durP2;ratioP2
37487;SDS011;23342;52.620;13.300;2022-12-18T15:47:03;44.10;;;19.55;;
37487;SDS011;23342;52.620;13.300;2022-12-18T15:49:32;44.05;;;21.00;;
37487;SDS011;23342;52.620;13.300;2022-12-18T15:51:58;47.17;;;22.23;;
37487;SDS011;23342;52.620;13.300;2022-12-18T15:54:26;42.22;;;20.80;;
37487;SDS011;23342;52.620;13.300;2022-12-18T16:00:23;44.88;;;20.37;;
37487;SDS011;23342;52.620;13.300;2022-12-18T16:02:49;43.80;;;20.30;;
37487;SDS011;23342;52.620;13.300;2022-12-18T16:05:15;39.57;;;19.97;;
37487;SDS011;23342;52.620;13.300;2022-12-18T16:07:42;39.95;;;20.48;;
37487;SDS011;23342;52.620;13.300;2022-12-18T16:10:08;44.30;;;19.95;;
37487;SDS011;23342;52.620;13.300;2022-12-18T16:12:33;46.03;;;20.20;;
37487;SDS011;23342;52.620;13.300;2022-12-18T16:15:00;39.17;;;19.08;;
37487;SDS011;23342;52.620;13.300;2022-12-18T16:17:25;38.70;;;19.27;;
37487;SDS011;23342;52.620;13.300;2022-12-18T16:19:51;49.13;;;21.27;;
37487;SDS011;23342;52.620;13.300;2022-12-18T16:22:27;43.57;;;21.00;;
37487;SDS011;23342;52.620;13.300;2022-12-18T16:24:54;39.55;;;18.85;;
37487;SDS011;23342;52.620;13.300;2022-12-18T16:27:21;35.15;;;18.30;;
37487;SDS011;23342;52.620;13.300;2022-12-18T16:29:47;41.35;;;20.95;;
37487;SDS011;23342;52.620;13.300;2022-12-18T16:32:15;41.10;;;21.30;;
37487;SDS011;23342;52.620;13.300;2022-12-18T16:34:42;42.85;;;21.55;;
37487;SDS011;23342;52.620;13.300;2022-12-18T16:37:09;45.30;;;21.30;;
37487;SDS011;23342;52.620;13.300;2022-12-18T16:39:35;38.30;;;18.20;;
37487;SDS011;23342;52.620;13.300;2022-12-18T16:42:06;39.85;;;18.58;;
37487;SDS011;23342;52.620;13.300;2022-12-18T16:44:39;46.70;;;19.98;;
37487;SDS011;23342;52.620;13.300;2022-12-18T16:47:05;43.00;;;19.37;;
37487;SDS011;23342;52.620;13.300;2022-12-18T16:49:30;40.10;;;19.40;;
37487;SDS011;23342;52.620;13.300;2022-12-18T16:51:56;42.60;;;20.37;;
37487;SDS011;23342;52.620;13.300;2022-12-18T16:54:22;42.73;;;21.23;;
37487;SDS011;23342;52.620;13.300;2022-12-18T16:56:47;45.50;;;22.27;;
37487;SDS011;23342;52.620;13.300;2022-12-18T16:59:15;42.00;;;21.08;;
37487;SDS011;23342;52.620;13.300;2022-12-18T17:01:41;44.13;;;21.67;;
37487;SDS011;23342;52.620;13.300;2022-12-18T17:04:06;46.10;;;21.20;;
37487;SDS011;23342;52.620;13.300;2022-12-18T17:06:33;45.67;;;22.07;;
37487;SDS011;23342;52.620;13.300;2022-12-18T17:09:01;42.83;;;21.10;;
37487;SDS011;23342;52.620;13.300;2022-12-18T17:11:32;45.60;;;21.55;;
37487;SDS011;23342;52.620;13.300;2022-12-18T17:13:58;39.78;;;19.98;;
37487;SDS011;23342;52.620;13.300;2022-12-18T17:16:24;44.50;;;20.10;;
37487;SDS011;23342;52.620;13.300;2022-12-18T17:18:51;41.07;;;21.27;;
37487;SDS011;23342;52.620;13.300;2022-12-18T17:21:17;42.75;;;20.20;;
37487;SDS011;23342;52.620;13.300;2022-12-18T17:23:43;39.53;;;20.00;;
37487;SDS011;23342;52.620;13.300;2022-12-18T17:26:10;45.47;;;21.50;;
37487;SDS011;23342;52.620;13.300;2022-12-18T17:28:37;43.00;;;20.83;;
37487;SDS011;23342;52.620;13.300;2022-12-18T17:31:11;43.25;;;20.12;;
37487;SDS011;23342;52.620;13.300;2022-12-18T17:33:37;43.17;;;21.10;;
37487;SDS011;23342;52.620;13.300;2022-12-18T17:36:04;42.33;;;19.90;;
37487;SDS011;23342;52.620;13.300;2022-12-18T17:38:29;39.97;;;19.93;;
37487;SDS011;23342;52.620;13.300;2022-12-18T17:40:59;44.80;;;20.73;;
37487;SDS011;23342;52.620;13.300;2022-12-18T17:43:26;38.75;;;21.08;;
37487;SDS011;23342;52.620;13.300;2022-12-18T17:45:52;45.77;;;21.97;;
37487;SDS011;23342;52.620;13.300;2022-12-18T17:48:17;44.90;;;21.47;;
37487;SDS011;23342;52.620;13.300;2022-12-18T17:50:43;47.83;;;21.10;;
37487;SDS011;23342;52.620;13.300;2022-12-18T17:53:09;51.78;;;21.95;;
37487;SDS011;23342;52.620;13.300;2022-12-18T17:55:35;44.93;;;21.70;;
37487;SDS011;23342;52.620;13.300;2022-12-18T17:58:01;47.07;;;21.97;;
37487;SDS011;23342;52.620;13.300;2022-12-18T18:00:26;41.27;;;20.93;;
37487;SDS011;23342;52.620;13.300;2022-12-18T18:02:52;48.43;;;20.60;;
37487;SDS011;23342;52.620;13.300;2022-12-18T18:05:17;47.40;;;21.33;;
37487;SDS011;23342;52.620;13.300;2022-12-18T18:07:43;48.50;;;21.93;;
37487;SDS011;23342;52.620;13.300;2022-12-18T18:10:08;49.43;;;23.20;;
37487;SDS011;23342;52.620;13.300;2022-12-18T18:12:35;48.03;;;22.23;;
37487;SDS011;23342;52.620;13.300;2022-12-18T18:15:19;45.75;;;20.62;;
37487;SDS011;23342;52.620;13.300;2022-12-18T18:17:46;45.50;;;21.35;;
37487;SDS011;23342;52.620;13.300;2022-12-18T18:20:11;51.33;;;21.60;;
37487;SDS011;23342;52.620;13.300;2022-12-18T18:22:39;49.47;;;22.15;;
37487;SDS011;23342;52.620;13.300;2022-12-18T18:25:04;51.03;;;23.67;;
37487;SDS011;23342;52.620;13.300;2022-12-18T18:27:30;53.30;;;23.27;;
37487;SDS011;23342;52.620;13.300;2022-12-18T18:29:56;52.77;;;23.57;;
37487;SDS011;23342;52.620;13.300;2022-12-18T18:32:21;54.43;;;22.70;;
37487;SDS011;23342;52.620;13.300;2022-12-18T18:34:47;49.93;;;23.77;;
37487;SDS011;23342;52.620;13.300;2022-12-18T18:37:12;47.27;;;22.07;;
37487;SDS011;23342;52.620;13.300;2022-12-18T18:39:38;49.93;;;23.93;;
37487;SDS011;23342;52.620;13.300;2022-12-18T18:42:03;49.33;;;23.30;;
37487;SDS011;23342;52.620;13.300;2022-12-18T18:44:29;50.17;;;22.40;;
37487;SDS011;23342;52.620;13.300;2022-12-18T18:46:55;53.00;;;23.60;;
37487;SDS011;23342;52.620;13.300;2022-12-18T18:49:22;52.80;;;23.67;;
37487;SDS011;23342;52.620;13.300;2022-12-18T18:51:50;53.03;;;23.30;;
37487;SDS011;23342;52.620;13.300;2022-12-18T18:54:16;53.77;;;22.47;;
37487;SDS011;23342;52.620;13.300;2022-12-18T18:56:42;56.77;;;25.47;;
37487;SDS011;23342;52.620;13.300;2022-12-18T18:59:07;51.03;;;22.50;;
37487;SDS011;23342;52.620;13.300;2022-12-18T19:01:33;51.40;;;23.43;;
37487;SDS011;23342;52.620;13.300;2022-12-18T19:03:59;54.67;;;24.23;;
37487;SDS011;23342;52.620;13.300;2022-12-18T19:06:28;55.12;;;25.40;;
37487;SDS011;23342;52.620;13.300;2022-12-18T19:08:54;57.53;;;25.23;;
37487;SDS011;23342;52.620;13.300;2022-12-18T19:11:20;55.05;;;25.55;;
37487;SDS011;23342;52.620;13.300;2022-12-18T19:14:07;57.75;;;25.30;;
37487;SDS011;23342;52.620;13.300;2022-12-18T19:16:34;55.95;;;24.50;;
37487;SDS011;23342;52.620;13.300;2022-12-18T19:19:00;56.97;;;24.90;;
37487;SDS011;23342;52.620;13.300;2022-12-18T19:21:25;59.23;;;24.73;;
37487;SDS011;23342;52.620;13.300;2022-12-18T19:23:52;54.00;;;24.15;;
37487;SDS011;23342;52.620;13.300;2022-12-18T19:26:18;53.53;;;22.60;;
37487;SDS011;23342;52.620;13.300;2022-12-18T19:28:44;55.38;;;24.52;;
37487;SDS011;23342;52.620;13.300;2022-12-18T19:31:11;63.83;;;24.93;;
37487;SDS011;23342;52.620;13.300;2022-12-18T19:33:39;56.88;;;25.37;;
37487;SDS011;23342;52.620;13.300;2022-12-18T19:36:10;55.72;;;24.63;;
37487;SDS011;23342;52.620;13.300;2022-12-18T19:38:47;62.05;;;25.33;;
37487;SDS011;23342;52.620;13.300;2022-12-18T19:41:14;58.33;;;25.23;;
37487;SDS011;23342;52.620;13.300;2022-12-18T19:43:41;60.90;;;25.62;;
37487;SDS011;23342;52.620;13.300;2022-12-18T19:46:08;61.53;;;26.90;;
37487;SDS011;23342;52.620;13.300;2022-12-18T19:48:36;61.83;;;24.58;;
37487;SDS011;23342;52.620;13.300;2022-12-18T19:51:09;56.27;;;24.70;;
37487;SDS011;23342;52.620;13.300;2022-12-18T19:53:38;57.88;;;24.10;;
37487;SDS011;23342;52.620;13.300;2022-12-18T19:56:07;56.43;;;25.83;;
37487;SDS011;23342;52.620;13.300;2022-12-18T19:58:34;59.00;;;25.35;;
37487;SDS011;23342;52.620;13.300;2022-12-18T20:01:00;59.60;;;24.57;;
37487;SDS011;23342;52.620;13.300;2022-12-18T20:03:26;61.43;;;25.53;;
37487;SDS011;23342;52.620;13.300;2022-12-18T20:05:51;61.37;;;25.33;;
37487;SDS011;23342;52.620;13.300;2022-12-18T20:08:17;59.30;;;24.53;;
37487;SDS011;23342;52.620;13.300;2022-12-18T20:10:42;57.47;;;25.70;;
37487;SDS011;23342;52.620;13.300;2022-12-18T20:13:12;59.33;;;24.92;;
37487;SDS011;23342;52.620;13.300;2022-12-18T20:15:38;57.15;;;25.88;;
37487;SDS011;23342;52.620;13.300;2022-12-18T20:18:04;61.37;;;25.53;;
37487;SDS011;23342;52.620;13.300;2022-12-18T20:20:29;63.23;;;27.23;;
37487;SDS011;23342;52.620;13.300;2022-12-18T20:22:55;60.70;;;25.63;;
37487;SDS011;23342;52.620;13.300;2022-12-18T20:25:20;62.33;;;26.10;;
37487;SDS011;23342;52.620;13.300;2022-12-18T20:27:46;57.07;;;24.53;;
37487;SDS011;23342;52.620;13.300;2022-12-18T20:30:11;64.87;;;25.73;;
37487;SDS011;23342;52.620;13.300;2022-12-18T20:32:37;62.70;;;26.07;;
37487;SDS011;23342;52.620;13.300;2022-12-18T20:35:03;57.93;;;24.40;;
37487;SDS011;23342;52.620;13.300;2022-12-18T20:37:29;59.28;;;25.88;;
37487;SDS011;23342;52.620;13.300;2022-12-18T20:39:54;54.87;;;24.70;;
37487;SDS011;23342;52.620;13.300;2022-12-18T20:42:20;57.47;;;25.20;;
37487;SDS011;23342;52.620;13.300;2022-12-18T20:44:45;57.23;;;24.37;;
37487;SDS011;23342;52.620;13.300;2022-12-18T20:47:11;58.67;;;24.53;;
37487;SDS011;23342;52.620;13.300;2022-12-18T20:49:36;52.63;;;23.00;;
37487;SDS011;23342;52.620;13.300;2022-12-18T20:52:02;61.93;;;24.67;;
37487;SDS011;23342;52.620;13.300;2022-12-18T20:54:28;56.93;;;24.33;;
37487;SDS011;23342;52.620;13.300;2022-12-18T20:56:54;60.97;;;24.07;;
37487;SDS011;23342;52.620;13.300;2022-12-18T20:59:20;57.33;;;23.95;;
37487;SDS011;23342;52.620;13.300;2022-12-18T21:01:47;57.83;;;24.37;;
37487;SDS011;23342;52.620;13.300;2022-12-18T21:04:13;54.33;;;24.48;;
37487;SDS011;23342;52.620;13.300;2022-12-18T21:06:39;58.67;;;25.37;;
37487;SDS011;23342;52.620;13.300;2022-12-18T21:09:05;57.87;;;24.47;;
37487;SDS011;23342;52.620;13.300;2022-12-18T21:11:30;62.63;;;24.93;;
37487;SDS011;23342;52.620;13.300;2022-12-18T21:14:16;54.45;;;22.20;;
37487;SDS011;23342;52.620;13.300;2022-12-18T21:16:44;54.13;;;22.42;;
37487;SDS011;23342;52.620;13.300;2022-12-18T21:19:11;58.97;;;24.00;;
37487;SDS011;23342;52.620;13.300;2022-12-18T21:21:40;57.55;;;23.33;;
37487;SDS011;23342;52.620;13.300;2022-12-18T21:24:06;48.42;;;21.90;;
37487;SDS011;23342;52.620;13.300;2022-12-18T21:26:33;58.53;;;24.50;;
37487;SDS011;23342;52.620;13.300;2022-12-18T21:29:00;54.90;;;22.57;;
37487;SDS011;23342;52.620;13.300;2022-12-18T21:31:29;52.50;;;21.30;;
37487;SDS011;23342;52.620;13.300;2022-12-18T21:33:56;54.03;;;22.30;;
37487;SDS011;23342;52.620;13.300;2022-12-18T21:36:22;53.23;;;22.77;;
37487;SDS011;23342;52.620;13.300;2022-12-18T21:38:48;53.93;;;23.77;;
37487;SDS011;23342;52.620;13.300;2022-12-18T21:41:14;58.07;;;23.53;;
37487;SDS011;23342;52.620;13.300;2022-12-18T21:43:58;48.50;;;22.00;;
37487;SDS011;23342;52.620;13.300;2022-12-18T21:46:29;56.40;;;22.45;;
37487;SDS011;23342;52.620;13.300;2022-12-18T21:48:54;54.40;;;22.47;;
37487;SDS011;23342;52.620;13.300;2022-12-18T21:51:20;55.63;;;23.57;;
37487;SDS011;23342;52.620;13.300;2022-12-18T21:53:45;54.10;;;22.83;;
37487;SDS011;23342;52.620;13.300;2022-12-18T21:56:11;51.20;;;21.27;;
37487;SDS011;23342;52.620;13.300;2022-12-18T21:58:36;49.43;;;22.87;;
37487;SDS011;23342;52.620;13.300;2022-12-18T22:01:02;57.97;;;23.13;;
37487;SDS011;23342;52.620;13.300;2022-12-18T22:03:27;59.70;;;23.10;;
37487;SDS011;23342;52.620;13.300;2022-12-18T22:05:55;60.40;;;24.63;;
37487;SDS011;23342;52.620;13.300;2022-12-18T22:08:22;54.97;;;22.58;;
37487;SDS011;23342;52.620;13.300;2022-12-18T22:10:48;50.97;;;21.70;;
37487;SDS011;23342;52.620;13.300;2022-12-18T22:13:14;59.87;;;22.83;;
37487;SDS011;23342;52.620;13.300;2022-12-18T22:15:40;51.28;;;22.10;;
37487;SDS011;23342;52.620;13.300;2022-12-18T22:18:05;53.00;;;21.97;;
37487;SDS011;23342;52.620;13.300;2022-12-18T22:20:31;56.30;;;23.80;;
37487;SDS011;23342;52.620;13.300;2022-12-18T22:22:57;46.50;;;21.00;;
37487;SDS011;23342;52.620;13.300;2022-12-18T22:25:23;49.30;;;21.35;;
37487;SDS011;23342;52.620;13.300;2022-12-18T22:27:48;51.47;;;22.10;;
37487;SDS011;23342;52.620;13.300;2022-12-18T22:30:32;51.08;;;20.60;;
37487;SDS011;23342;52.620;13.300;2022-12-18T22:32:58;50.80;;;20.85;;
37487;SDS011;23342;52.620;13.300;2022-12-18T22:35:24;58.00;;;20.73;;
37487;SDS011;23342;52.620;13.300;2022-12-18T22:37:49;49.87;;;21.33;;
37487;SDS011;23342;52.620;13.300;2022-12-18T22:40:16;54.53;;;22.97;;
37487;SDS011;23342;52.620;13.300;2022-12-18T22:42:44;49.20;;;20.08;;
37487;SDS011;23342;52.620;13.300;2022-12-18T22:45:09;46.63;;;19.10;;
37487;SDS011;23342;52.620;13.300;2022-12-18T22:47:35;47.90;;;20.83;;
37487;SDS011;23342;52.620;13.300;2022-12-18T22:50:00;43.73;;;18.80;;
37487;SDS011;23342;52.620;13.300;2022-12-18T22:52:26;49.70;;;20.90;;
37487;SDS011;23342;52.620;13.300;2022-12-18T22:54:52;45.17;;;19.23;;
37487;SDS011;23342;52.620;13.300;2022-12-18T22:57:17;49.55;;;20.45;;
37487;SDS011;23342;52.620;13.300;2022-12-18T22:59:43;49.73;;;20.63;;
37487;SDS011;23342;52.620;13.300;2022-12-18T23:02:08;48.37;;;19.50;;
37487;SDS011;23342;52.620;13.300;2022-12-18T23:04:34;49.77;;;19.10;;
37487;SDS011;23342;52.620;13.300;2022-12-18T23:07:00;47.83;;;18.80;;
37487;SDS011;23342;52.620;13.300;2022-12-18T23:09:26;47.80;;;20.27;;
37487;SDS011;23342;52.620;13.300;2022-12-18T23:11:52;45.47;;;20.20;;
37487;SDS011;23342;52.620;13.300;2022-12-18T23:14:18;44.83;;;17.67;;
37487;SDS011;23342;52.620;13.300;2022-12-18T23:16:43;46.23;;;18.70;;
37487;SDS011;23342;52.620;13.300;2022-12-18T23:19:09;43.97;;;19.40;;
37487;SDS011;23342;52.620;13.300;2022-12-18T23:21:35;44.28;;;19.20;;
37487;SDS011;23342;52.620;13.300;2022-12-18T23:24:01;38.10;;;18.63;;
37487;SDS011;23342;52.620;13.300;2022-12-18T23:26:27;44.40;;;19.20;;
37487;SDS011;23342;52.620;13.300;2022-12-18T23:28:53;44.63;;;17.73;;
37487;SDS011;23342;52.620;13.300;2022-12-18T23:31:21;43.03;;;18.58;;
37487;SDS011;23342;52.620;13.300;2022-12-18T23:33:56;44.90;;;18.77;;
37487;SDS011;23342;52.620;13.300;2022-12-18T23:36:23;45.70;;;19.42;;
37487;SDS011;23342;52.620;13.300;2022-12-18T23:38:53;43.05;;;18.37;;
37487;SDS011;23342;52.620;13.300;2022-12-18T23:41:21;47.58;;;17.85;;
37487;SDS011;23342;52.620;13.300;2022-12-18T23:43:48;45.35;;;18.48;;
37487;SDS011;23342;52.620;13.300;2022-12-18T23:46:22;46.42;;;18.80;;
37487;SDS011;23342;52.620;13.300;2022-12-18T23:48:50;49.33;;;19.37;;
37487;SDS011;23342;52.620;13.300;2022-12-18T23:51:17;45.53;;;19.37;;
37487;SDS011;23342;52.620;13.300;2022-12-18T23:53:44;40.05;;;18.02;;
37487;SDS011;23342;52.620;13.300;2022-12-18T23:56:10;39.33;;;17.40;;
37487;SDS011;23342;52.620;13.300;2022-12-18T23:58:37;43.25;;;18.35;;
